createdAt,value
2023-01-18T00:01:11.832Z,8.40
2023-01-18T00:03:39.462Z,9.20
2023-01-18T00:06:09.349Z,8.27
2023-01-18T00:08:38.546Z,9.27
2023-01-18T00:11:10.870Z,10.13
2023-01-18T00:13:38.695Z,11.33
2023-01-18T00:16:13.968Z,9.70
2023-01-18T00:18:40.944Z,8.97
2023-01-18T00:21:10.171Z,9.00
2023-01-18T00:23:37.822Z,10.37
2023-01-18T00:26:07.130Z,10.13
2023-01-18T00:28:35.170Z,11.07
2023-01-18T00:31:02.380Z,11.10
2023-01-18T00:33:29.497Z,13.60
2023-01-18T00:36:01.621Z,10.33
2023-01-18T00:38:29.833Z,12.63
2023-01-18T00:40:56.860Z,23.03
2023-01-18T00:43:38.635Z,29.67
2023-01-18T00:46:07.768Z,11.20
2023-01-18T00:48:35.276Z,12.20
2023-01-18T00:51:02.678Z,16.77
2023-01-18T00:53:29.787Z,12.00
2023-01-18T00:55:56.696Z,22.70
2023-01-18T00:58:24.057Z,14.23
2023-01-18T01:00:52.668Z,13.20
2023-01-18T01:03:21.287Z,14.23
2023-01-18T01:06:07.103Z,13.13
2023-01-18T01:08:34.209Z,14.27
2023-01-18T01:11:12.418Z,16.00
2023-01-18T01:13:57.829Z,29.20
2023-01-18T01:16:43.164Z,11.07
2023-01-18T01:19:28.832Z,13.17
2023-01-18T01:22:14.173Z,13.03
2023-01-18T01:24:59.510Z,15.53
2023-01-18T01:27:26.521Z,9.13
2023-01-18T01:29:54.277Z,9.27
2023-01-18T01:32:21.214Z,9.23
2023-01-18T01:34:48.088Z,12.37
2023-01-18T01:37:15.046Z,13.37
2023-01-18T01:39:41.961Z,16.20
2023-01-18T01:42:11.601Z,10.83
2023-01-18T01:44:41.937Z,20.27
2023-01-18T01:47:21.596Z,21.37
2023-01-18T01:49:52.542Z,17.73
2023-01-18T01:52:30.266Z,14.03
2023-01-18T01:55:02.664Z,13.37
2023-01-18T01:57:38.482Z,21.70
2023-01-18T02:00:14.370Z,11.27
2023-01-18T02:02:44.239Z,10.60
2023-01-18T02:05:13.576Z,12.57
2023-01-18T02:07:40.829Z,14.13
2023-01-18T02:10:08.256Z,13.13
2023-01-18T02:12:37.544Z,11.97
2023-01-18T02:15:05.258Z,10.07
2023-01-18T02:17:45.751Z,11.47
2023-01-18T02:20:50.044Z,16.83
2023-01-18T02:23:52.943Z,12.13
2023-01-18T02:26:48.480Z,14.63
2023-01-18T02:29:19.119Z,18.07
2023-01-18T02:32:03.356Z,13.27
2023-01-18T02:34:41.808Z,12.93
2023-01-18T02:37:23.800Z,11.37
2023-01-18T02:40:06.205Z,10.07
2023-01-18T02:42:55.649Z,12.93
2023-01-18T02:45:46.149Z,18.87
2023-01-18T02:48:14.840Z,11.70
2023-01-18T02:50:43.298Z,10.47
2023-01-18T02:53:13.876Z,11.30
2023-01-18T02:56:01.224Z,17.23
2023-01-18T02:58:34.013Z,15.37
2023-01-18T03:01:11.809Z,13.73
2023-01-18T03:03:44.041Z,13.97
2023-01-18T03:06:11.080Z,29.67
2023-01-18T03:08:53.883Z,16.87
2023-01-18T03:11:33.193Z,15.57
2023-01-18T03:14:12.419Z,12.43
2023-01-18T03:16:59.227Z,13.63
2023-01-18T03:19:55.888Z,16.67
2023-01-18T03:22:46.193Z,10.57
2023-01-18T03:25:17.851Z,17.37
2023-01-18T03:28:06.195Z,10.70
2023-01-18T03:30:53.112Z,17.63
2023-01-18T03:33:45.873Z,11.30
2023-01-18T03:36:18.328Z,9.43
2023-01-18T03:38:49.311Z,10.13
2023-01-18T03:41:18.708Z,15.20
2023-01-18T03:43:48.382Z,33.37
2023-01-18T03:46:19.026Z,11.37
2023-01-18T03:48:46.023Z,13.30
2023-01-18T03:51:25.817Z,13.20
2023-01-18T03:54:07.108Z,12.63
2023-01-18T03:56:53.269Z,10.63
2023-01-18T03:59:21.576Z,10.67
2023-01-18T04:01:49.715Z,17.33
2023-01-18T04:04:16.665Z,13.10
2023-01-18T04:06:43.810Z,11.30
2023-01-18T04:09:11.839Z,11.73
2023-01-18T04:11:38.995Z,11.07
2023-01-18T04:14:06.161Z,11.47
2023-01-18T04:16:33.132Z,10.63
2023-01-18T04:19:00.076Z,10.23
2023-01-18T04:21:27.096Z,10.20
2023-01-18T04:23:53.993Z,12.37
2023-01-18T04:26:21.053Z,13.37
2023-01-18T04:28:47.974Z,12.03
2023-01-18T04:31:14.922Z,11.37
2023-01-18T04:33:41.821Z,10.40
2023-01-18T04:36:08.933Z,11.23
2023-01-18T04:38:35.942Z,10.40
2023-01-18T04:41:04.320Z,14.03
2023-01-18T04:43:31.295Z,20.83
2023-01-18T04:45:58.361Z,13.77
2023-01-18T04:48:25.857Z,10.10
2023-01-18T04:50:52.852Z,10.40
2023-01-18T04:53:20.602Z,10.07
2023-01-18T04:55:47.686Z,11.07
2023-01-18T04:58:15.136Z,9.70
2023-01-18T05:00:42.096Z,10.67
2023-01-18T05:03:12.601Z,12.83
2023-01-18T05:05:40.039Z,12.30
2023-01-18T05:08:06.952Z,12.40
2023-01-18T05:10:34.061Z,11.17
2023-01-18T05:13:01.407Z,10.93
2023-01-18T05:15:28.855Z,17.73
2023-01-18T05:17:55.955Z,11.47
2023-01-18T05:20:23.504Z,10.53
2023-01-18T05:22:51.018Z,12.00
2023-01-18T05:25:17.897Z,12.97
2023-01-18T05:27:44.862Z,13.03
2023-01-18T05:30:12.319Z,11.50
2023-01-18T05:32:39.471Z,14.77
2023-01-18T05:35:07.121Z,17.70
2023-01-18T05:37:34.106Z,29.17
2023-01-18T05:40:01.038Z,20.00
2023-01-18T05:42:27.966Z,11.03
2023-01-18T05:44:54.962Z,11.47
2023-01-18T05:47:21.905Z,9.70
2023-01-18T05:49:49.430Z,12.13
2023-01-18T05:52:16.982Z,9.10
2023-01-18T05:54:43.931Z,10.13
2023-01-18T05:57:10.892Z,9.17
2023-01-18T05:59:37.784Z,9.60
2023-01-18T06:02:04.981Z,8.73
2023-01-18T06:04:32.005Z,8.77
2023-01-18T06:06:59.009Z,9.33
2023-01-18T06:09:25.996Z,8.90
2023-01-18T06:11:52.879Z,8.57
2023-01-18T06:14:20.133Z,8.73
2023-01-18T06:16:47.127Z,8.27
2023-01-18T06:19:14.096Z,8.60
2023-01-18T06:21:40.977Z,7.53
2023-01-18T06:24:07.974Z,8.53
2023-01-18T06:26:34.889Z,7.43
2023-01-18T06:29:01.780Z,7.93
2023-01-18T06:31:28.756Z,7.53
2023-01-18T06:33:55.689Z,7.83
2023-01-18T06:36:22.747Z,8.77
2023-01-18T06:38:49.669Z,9.60
2023-01-18T06:41:17.065Z,7.80
2023-01-18T06:43:45.888Z,8.60
2023-01-18T06:46:12.920Z,8.43
2023-01-18T06:48:39.859Z,9.57
2023-01-18T06:51:06.793Z,8.60
2023-01-18T06:53:34.215Z,8.03
2023-01-18T06:56:02.445Z,8.20
2023-01-18T06:58:32.944Z,7.80
2023-01-18T07:01:01.204Z,7.40
2023-01-18T07:03:29.752Z,9.50
2023-01-18T07:05:58.620Z,8.40
2023-01-18T07:08:27.324Z,8.60
2023-01-18T07:10:54.998Z,7.63
2023-01-18T07:13:22.189Z,8.03
2023-01-18T07:16:00.751Z,8.20
2023-01-18T07:18:29.946Z,9.43
2023-01-18T07:21:06.990Z,10.07
2023-01-18T07:23:36.294Z,9.50
2023-01-18T07:26:05.386Z,10.90
2023-01-18T07:28:33.563Z,11.03
2023-01-18T07:31:01.353Z,10.50
2023-01-18T07:33:29.307Z,10.47
2023-01-18T07:35:58.031Z,10.10
2023-01-18T07:38:25.779Z,10.17
2023-01-18T07:40:58.635Z,11.60
2023-01-18T07:43:28.097Z,10.67
2023-01-18T07:45:57.229Z,11.13
2023-01-18T07:48:26.271Z,12.10
2023-01-18T07:50:57.960Z,11.77
2023-01-18T07:53:26.792Z,11.93
2023-01-18T07:55:54.961Z,11.23
2023-01-18T07:58:21.890Z,12.20
2023-01-18T08:00:48.887Z,12.43
2023-01-18T08:03:17.617Z,12.10
2023-01-18T08:05:45.344Z,11.57
2023-01-18T08:08:14.292Z,11.47
2023-01-18T08:10:42.471Z,13.17
2023-01-18T08:13:10.096Z,11.93
2023-01-18T08:15:38.890Z,9.10
2023-01-18T08:18:07.244Z,9.23
2023-01-18T08:20:34.963Z,7.67
2023-01-18T08:23:03.961Z,7.00
2023-01-18T08:25:33.313Z,7.53
2023-01-18T08:28:01.967Z,6.93
2023-01-18T08:30:31.961Z,8.80
2023-01-18T08:33:01.340Z,6.90
2023-01-18T08:35:31.422Z,8.90
2023-01-18T08:37:59.514Z,7.47
2023-01-18T08:40:27.441Z,7.87
2023-01-18T08:43:02.210Z,9.90
2023-01-18T08:45:29.821Z,9.90
2023-01-18T08:48:00.786Z,11.10
2023-01-18T08:50:28.685Z,8.10
2023-01-18T08:52:57.169Z,9.43
2023-01-18T08:55:24.266Z,8.67
2023-01-18T08:57:53.968Z,8.47
2023-01-18T09:00:23.682Z,9.30
2023-01-18T09:02:51.134Z,10.37
2023-01-18T09:05:18.028Z,10.40
2023-01-18T09:07:45.347Z,12.30
2023-01-18T09:10:12.997Z,11.67
2023-01-18T09:12:40.723Z,9.53
2023-01-18T09:15:08.475Z,9.93
2023-01-18T09:17:35.477Z,9.43
2023-01-18T09:20:03.095Z,8.87
2023-01-18T09:22:30.001Z,9.83
2023-01-18T09:24:57.573Z,11.57
2023-01-18T09:27:24.526Z,10.30
2023-01-18T09:29:52.341Z,19.83
2023-01-18T09:32:19.957Z,14.40
2023-01-18T09:34:50.530Z,12.03
2023-01-18T09:37:19.016Z,12.87
2023-01-18T09:39:51.719Z,12.53
2023-01-18T09:42:27.504Z,13.87
2023-01-18T09:44:58.594Z,13.70
2023-01-18T09:47:30.191Z,11.93
2023-01-18T09:50:02.689Z,13.00
2023-01-18T09:52:32.352Z,12.60
2023-01-18T09:55:06.468Z,13.00
2023-01-18T09:58:11.230Z,11.93
2023-01-18T10:00:44.856Z,12.00
2023-01-18T10:03:58.131Z,12.87
2023-01-18T10:06:36.969Z,11.43
2023-01-18T10:09:12.182Z,11.50
2023-01-18T10:11:44.991Z,11.70
2023-01-18T10:14:22.745Z,11.90
2023-01-18T10:16:58.001Z,11.00
2023-01-18T10:19:28.322Z,11.50
2023-01-18T10:22:05.148Z,11.30
2023-01-18T10:24:45.105Z,10.87
2023-01-18T10:27:41.295Z,12.23
2023-01-18T10:30:25.737Z,10.57
2023-01-18T10:32:58.009Z,10.10
2023-01-18T10:35:31.046Z,9.93
2023-01-18T10:38:03.437Z,9.20
2023-01-18T10:40:30.359Z,8.87
2023-01-18T10:43:01.882Z,8.53
2023-01-18T10:45:32.112Z,8.77
2023-01-18T10:48:18.424Z,8.43
2023-01-18T10:50:48.178Z,9.07
2023-01-18T10:53:27.153Z,8.90
2023-01-18T10:56:02.154Z,8.17
2023-01-18T10:58:54.604Z,8.90
2023-01-18T11:01:49.036Z,8.90
2023-01-18T11:04:28.473Z,8.03
2023-01-18T11:07:01.159Z,8.10
2023-01-18T11:09:48.342Z,7.87
2023-01-18T11:12:37.038Z,8.00
2023-01-18T11:15:13.284Z,8.27
2023-01-18T11:18:06.076Z,8.23
2023-01-18T11:20:50.330Z,9.03
2023-01-18T11:23:35.555Z,8.50
2023-01-18T11:26:18.955Z,7.67
2023-01-18T11:29:13.669Z,7.63
2023-01-18T11:31:48.277Z,7.07
2023-01-18T11:34:41.114Z,7.63
2023-01-18T11:37:39.673Z,7.37
2023-01-18T11:40:18.479Z,7.67
2023-01-18T11:42:46.831Z,7.60
2023-01-18T11:46:01.327Z,6.93
2023-01-18T11:48:52.042Z,6.93
2023-01-18T11:51:45.889Z,7.70
2023-01-18T11:54:44.009Z,7.63
2023-01-18T11:57:14.331Z,7.07
2023-01-18T11:59:45.252Z,7.60
2023-01-18T12:02:24.464Z,8.60
2023-01-18T12:05:28.256Z,7.70
2023-01-18T12:08:17.102Z,7.60
2023-01-18T12:11:01.296Z,7.60
2023-01-18T12:13:36.039Z,7.20
2023-01-18T12:16:15.206Z,7.50
2023-01-18T12:19:21.448Z,7.43
2023-01-18T12:21:57.665Z,7.37
2023-01-18T12:24:46.144Z,7.50
2023-01-18T12:27:46.206Z,7.27
2023-01-18T12:30:37.283Z,7.47
2023-01-18T12:33:13.113Z,7.80
2023-01-18T12:36:07.529Z,7.23
2023-01-18T12:38:35.610Z,7.50
2023-01-18T12:41:24.114Z,7.50
2023-01-18T12:44:10.443Z,6.47
2023-01-18T12:47:00.919Z,7.30
2023-01-18T12:49:34.922Z,6.63
2023-01-18T12:52:18.097Z,6.20
2023-01-18T12:54:55.533Z,6.77
2023-01-18T12:57:25.097Z,6.27
2023-01-18T13:00:27.622Z,7.17
2023-01-18T13:02:57.508Z,6.80
2023-01-18T13:05:33.782Z,6.43
2023-01-18T13:08:11.714Z,6.87
2023-01-18T13:10:38.986Z,6.00
2023-01-18T13:13:07.098Z,5.13
2023-01-18T13:15:47.968Z,5.47
2023-01-18T13:18:42.899Z,5.10
2023-01-18T13:21:26.071Z,5.00
2023-01-18T13:24:09.457Z,4.80
2023-01-18T13:26:36.603Z,5.10
2023-01-18T13:29:13.930Z,5.30
2023-01-18T13:31:40.848Z,5.07
2023-01-18T13:34:24.759Z,4.57
2023-01-18T13:36:53.345Z,5.70
2023-01-18T13:39:23.878Z,4.60
2023-01-18T13:42:07.907Z,4.60
2023-01-18T13:44:40.902Z,4.17
2023-01-18T13:47:42.722Z,4.27
2023-01-18T13:50:28.076Z,4.23
2023-01-18T13:53:13.528Z,3.90
2023-01-18T13:55:46.294Z,4.40
2023-01-18T13:58:30.701Z,3.93
2023-01-18T14:01:03.307Z,3.83
2023-01-18T14:03:34.096Z,3.70
2023-01-18T14:06:13.413Z,4.30
2023-01-18T14:08:50.203Z,3.60
2023-01-18T14:11:29.014Z,3.70
2023-01-18T14:14:03.315Z,3.40
2023-01-18T14:16:34.091Z,4.00
2023-01-18T14:19:19.614Z,3.33
2023-01-18T14:22:18.009Z,3.87
2023-01-18T14:25:00.189Z,3.30
2023-01-18T14:27:33.123Z,3.93
2023-01-18T14:30:11.472Z,27.43
2023-01-18T14:32:54.646Z,5.30
2023-01-18T14:35:25.777Z,4.47
2023-01-18T14:38:16.934Z,5.00
2023-01-18T14:40:49.148Z,4.53
2023-01-18T14:43:24.797Z,4.50
2023-01-18T14:46:05.296Z,4.10
2023-01-18T14:48:34.762Z,5.20
2023-01-18T14:51:02.336Z,4.60
2023-01-18T14:53:35.922Z,5.27
2023-01-18T14:56:14.627Z,7.60
2023-01-18T14:58:58.848Z,6.30
2023-01-18T15:01:38.882Z,5.43
2023-01-18T15:04:24.526Z,6.60
2023-01-18T15:06:53.941Z,14.83
2023-01-18T15:09:23.315Z,9.53
2023-01-18T15:11:53.446Z,8.47
2023-01-18T15:14:26.356Z,6.60
2023-01-18T15:16:56.127Z,6.40
2023-01-18T15:19:40.225Z,6.43
2023-01-18T15:22:10.724Z,6.03
2023-01-18T15:24:40.466Z,6.30
2023-01-18T15:27:16.553Z,6.03
2023-01-18T15:29:49.112Z,6.50
2023-01-18T15:32:20.381Z,6.60
2023-01-18T15:34:49.953Z,6.53
2023-01-18T15:37:26.229Z,6.93
2023-01-18T15:40:24.342Z,7.90
2023-01-18T15:42:58.414Z,7.40
2023-01-18T15:45:29.319Z,6.97
2023-01-18T15:47:59.844Z,7.40
2023-01-18T15:50:34.062Z,6.87
2023-01-18T15:53:06.687Z,7.07
2023-01-18T15:55:39.925Z,7.00
2023-01-18T15:58:36.567Z,6.37
2023-01-18T16:01:13.578Z,6.87
2023-01-18T16:03:53.993Z,6.73
2023-01-18T16:06:20.838Z,6.70
2023-01-18T16:08:57.796Z,6.33
2023-01-18T16:11:49.867Z,6.23
2023-01-18T16:14:28.626Z,6.00
2023-01-18T16:17:06.780Z,5.87
2023-01-18T16:19:42.068Z,6.37
2023-01-18T16:22:21.897Z,6.63
2023-01-18T16:24:50.904Z,7.07
2023-01-18T16:27:24.431Z,6.53
2023-01-18T16:29:59.883Z,8.73
2023-01-18T16:32:29.648Z,9.30
2023-01-18T16:35:03.563Z,9.17
2023-01-18T16:37:31.300Z,8.80
2023-01-18T16:39:58.191Z,8.30
2023-01-18T16:42:37.125Z,8.50
2023-01-18T16:45:06.443Z,9.00
2023-01-18T16:47:34.368Z,10.00
2023-01-18T16:50:01.369Z,8.70
2023-01-18T16:52:28.428Z,7.70
2023-01-18T16:54:55.313Z,7.00
2023-01-18T16:57:23.800Z,9.17
2023-01-18T16:59:50.815Z,9.20
2023-01-18T17:02:18.063Z,8.03
2023-01-18T17:04:46.437Z,8.07
2023-01-18T17:07:13.836Z,7.53
2023-01-18T17:09:48.260Z,8.30
2023-01-18T17:12:16.303Z,8.60
2023-01-18T17:14:43.203Z,9.10
2023-01-18T17:17:11.319Z,8.37
2023-01-18T17:19:38.299Z,8.57
2023-01-18T17:22:06.360Z,8.27
2023-01-18T17:24:33.404Z,9.10
2023-01-18T17:27:01.175Z,7.17
2023-01-18T17:29:28.725Z,7.00
2023-01-18T17:31:55.633Z,7.00
2023-01-18T17:34:30.026Z,7.43
2023-01-18T17:36:58.718Z,6.70
2023-01-18T17:39:42.546Z,6.60
2023-01-18T17:42:19.176Z,9.27
2023-01-18T17:44:50.313Z,7.90
2023-01-18T17:47:17.424Z,8.27
2023-01-18T17:49:44.343Z,7.97
2023-01-18T17:52:11.830Z,7.90
2023-01-18T17:54:38.898Z,7.40
2023-01-18T17:57:05.805Z,8.03
2023-01-18T17:59:32.683Z,7.63
2023-01-18T18:01:59.715Z,6.67
2023-01-18T18:04:26.851Z,6.20
2023-01-18T18:06:58.205Z,6.10
2023-01-18T18:09:25.323Z,6.37
2023-01-18T18:11:52.530Z,8.00
2023-01-18T18:14:19.711Z,7.27
2023-01-18T18:16:46.725Z,6.73
2023-01-18T18:19:14.690Z,8.10
2023-01-18T18:21:42.819Z,9.53
2023-01-18T18:24:09.791Z,12.83
2023-01-18T18:26:36.820Z,15.87
2023-01-18T18:29:05.383Z,15.20
2023-01-18T18:31:32.320Z,16.00
2023-01-18T18:33:59.317Z,19.50
2023-01-18T18:36:27.714Z,19.20
2023-01-18T18:38:54.752Z,16.93
2023-01-18T18:41:21.755Z,15.30
2023-01-18T18:43:48.686Z,14.87
2023-01-18T18:46:15.643Z,14.63
2023-01-18T18:48:43.020Z,13.97
2023-01-18T18:51:10.270Z,10.60
2023-01-18T18:53:39.625Z,10.43
2023-01-18T18:56:10.051Z,10.00
2023-01-18T18:58:38.823Z,8.00
2023-01-18T19:01:07.684Z,7.87
2023-01-18T19:03:35.176Z,8.90
2023-01-18T19:06:02.351Z,8.63
2023-01-18T19:08:31.524Z,9.83
2023-01-18T19:10:58.505Z,11.47
2023-01-18T19:13:25.640Z,11.07
2023-01-18T19:15:52.703Z,10.50
2023-01-18T19:18:20.372Z,10.20
2023-01-18T19:20:50.562Z,10.30
2023-01-18T19:23:17.681Z,9.53
2023-01-18T19:25:44.747Z,9.53
2023-01-18T19:28:11.763Z,10.70
2023-01-18T19:30:41.404Z,11.20
2023-01-18T19:33:08.824Z,11.17
2023-01-18T19:35:41.053Z,10.73
2023-01-18T19:38:10.539Z,12.43
2023-01-18T19:40:37.832Z,12.27
2023-01-18T19:43:05.197Z,11.43
2023-01-18T19:45:33.014Z,11.00
2023-01-18T19:48:01.170Z,11.10
2023-01-18T19:50:29.696Z,10.30
2023-01-18T19:52:57.168Z,10.93
2023-01-18T19:55:25.032Z,10.90
2023-01-18T19:57:54.784Z,10.93
2023-01-18T20:00:21.731Z,13.13
2023-01-18T20:02:48.869Z,10.10
2023-01-18T20:05:15.984Z,11.83
2023-01-18T20:07:43.367Z,11.00
2023-01-18T20:10:10.894Z,11.27
2023-01-18T20:12:38.321Z,10.87
2023-01-18T20:15:06.178Z,9.40
2023-01-18T20:17:33.094Z,9.20
2023-01-18T20:20:00.030Z,8.37
2023-01-18T20:22:27.126Z,8.07
2023-01-18T20:24:54.413Z,7.53
2023-01-18T20:27:21.354Z,7.27
2023-01-18T20:29:48.252Z,8.77
2023-01-18T20:32:17.732Z,7.77
2023-01-18T20:34:47.062Z,8.00
2023-01-18T20:37:15.772Z,7.33
2023-01-18T20:39:42.797Z,6.80
2023-01-18T20:42:09.794Z,6.90
2023-01-18T20:44:36.802Z,7.50
2023-01-18T20:47:03.933Z,7.67
2023-01-18T20:49:37.603Z,7.47
2023-01-18T20:52:06.986Z,8.50
2023-01-18T20:54:36.170Z,8.80
2023-01-18T20:57:05.037Z,7.47
2023-01-18T20:59:31.927Z,8.50
2023-01-18T21:01:59.004Z,7.97
2023-01-18T21:04:26.207Z,8.50
2023-01-18T21:06:53.202Z,9.23
2023-01-18T21:09:20.190Z,8.30
2023-01-18T21:11:47.104Z,11.57
2023-01-18T21:14:14.190Z,14.00
2023-01-18T21:16:41.263Z,24.83
2023-01-18T21:19:10.134Z,15.60
2023-01-18T21:21:37.098Z,16.10
2023-01-18T21:24:04.218Z,13.43
2023-01-18T21:26:31.125Z,10.40
2023-01-18T21:28:59.107Z,9.43
2023-01-18T21:31:27.160Z,8.10
2023-01-18T21:33:54.870Z,6.00
2023-01-18T21:36:22.869Z,5.17
2023-01-18T21:38:50.567Z,6.27
2023-01-18T21:41:35.941Z,5.63
2023-01-18T21:44:21.873Z,10.23
2023-01-18T21:46:51.080Z,8.37
2023-01-18T21:50:04.030Z,7.67
2023-01-18T21:52:42.773Z,6.30
2023-01-18T21:55:09.902Z,6.30
2023-01-18T21:57:37.423Z,6.90
2023-01-18T22:00:05.662Z,6.10
2023-01-18T22:02:33.811Z,6.37
2023-01-18T22:05:00.906Z,6.50
2023-01-18T22:07:30.006Z,7.07
2023-01-18T22:10:06.027Z,6.97
2023-01-18T22:12:36.159Z,8.03
2023-01-18T22:15:06.822Z,7.50
2023-01-18T22:17:33.802Z,7.37
2023-01-18T22:20:01.621Z,6.37
2023-01-18T22:22:28.538Z,6.17
2023-01-18T22:24:57.096Z,5.20
2023-01-18T22:27:24.066Z,4.90
2023-01-18T22:29:51.243Z,5.40
2023-01-18T22:32:18.257Z,5.80
2023-01-18T22:34:45.181Z,5.80
2023-01-18T22:37:12.111Z,5.53
2023-01-18T22:39:39.202Z,6.00
2023-01-18T22:42:06.175Z,7.53
2023-01-18T22:44:33.080Z,5.43
2023-01-18T22:47:00.318Z,5.73
2023-01-18T22:49:27.222Z,5.43
2023-01-18T22:51:54.155Z,5.37
2023-01-18T22:54:22.763Z,4.63
2023-01-18T22:56:49.957Z,4.90
2023-01-18T22:59:17.223Z,4.40
2023-01-18T23:01:44.313Z,4.60
2023-01-18T23:04:11.432Z,4.50
2023-01-18T23:06:47.897Z,4.23
2023-01-18T23:09:17.395Z,4.60
2023-01-18T23:11:45.344Z,4.33
2023-01-18T23:14:31.008Z,4.23
2023-01-18T23:17:16.724Z,4.60
2023-01-18T23:19:43.652Z,4.73
2023-01-18T23:22:11.112Z,4.90
2023-01-18T23:24:38.900Z,4.70
2023-01-18T23:27:09.815Z,4.47
2023-01-18T23:29:38.912Z,5.10
2023-01-18T23:32:06.256Z,4.60
2023-01-18T23:34:33.278Z,4.93
2023-01-18T23:37:00.246Z,5.03
2023-01-18T23:39:45.584Z,4.60
2023-01-18T23:42:30.849Z,4.37
2023-01-18T23:45:16.193Z,4.50
2023-01-18T23:48:02.117Z,4.83
2023-01-18T23:50:47.651Z,4.97
2023-01-18T23:53:33.052Z,4.73
2023-01-18T23:56:00.508Z,4.53
2023-01-18T23:58:27.604Z,4.60
